createdAt,value
2023-05-18T00:01:14.810Z,95.40
2023-05-18T00:03:43.185Z,95.10
2023-05-18T00:06:11.185Z,95.20
2023-05-18T00:08:40.293Z,95.10
2023-05-18T00:11:08.074Z,95.00
2023-05-18T00:13:35.934Z,95.20
2023-05-18T00:16:03.740Z,95.00
2023-05-18T00:18:31.546Z,95.00
2023-05-18T00:20:59.600Z,94.80
2023-05-18T00:23:29.724Z,94.50
2023-05-18T00:26:00.034Z,94.50
2023-05-18T00:28:28.147Z,94.30
2023-05-18T00:30:56.232Z,94.40
2023-05-18T00:33:24.191Z,94.40
2023-05-18T00:35:51.921Z,94.50
2023-05-18T00:38:19.646Z,94.60
2023-05-18T00:40:47.375Z,94.80
2023-05-18T00:43:16.523Z,95.30
2023-05-18T00:45:44.314Z,95.20
2023-05-18T00:48:12.151Z,94.90
2023-05-18T00:50:40.756Z,95.10
2023-05-18T00:53:10.569Z,95.40
2023-05-18T00:55:38.482Z,95.00
2023-05-18T00:58:06.449Z,94.90
2023-05-18T01:00:37.731Z,95.20
2023-05-18T01:03:06.234Z,95.20
2023-05-18T01:05:34.102Z,95.50
2023-05-18T01:08:03.027Z,95.60
2023-05-18T01:10:36.794Z,94.90
2023-05-18T01:13:10.666Z,95.00
2023-05-18T01:15:41.864Z,95.20
2023-05-18T01:18:16.411Z,95.00
2023-05-18T01:20:48.259Z,94.80
2023-05-18T01:23:57.841Z,95.10
2023-05-18T01:26:31.518Z,95.20
2023-05-18T01:29:02.335Z,95.30
2023-05-18T01:31:30.907Z,94.80
2023-05-18T01:33:58.866Z,94.80
2023-05-18T01:36:26.618Z,94.90
2023-05-18T01:38:55.593Z,94.70
2023-05-18T01:41:24.820Z,95.30
2023-05-18T01:44:02.469Z,95.40
2023-05-18T01:46:37.419Z,95.60
2023-05-18T01:49:12.218Z,95.60
2023-05-18T01:51:49.322Z,95.80
2023-05-18T01:54:19.892Z,95.60
2023-05-18T01:56:49.771Z,95.70
2023-05-18T01:59:19.609Z,96.00
2023-05-18T02:01:47.428Z,96.50
2023-05-18T02:04:15.345Z,96.80
2023-05-18T02:06:43.217Z,96.50
2023-05-18T02:09:11.043Z,96.70
2023-05-18T02:11:38.788Z,96.30
2023-05-18T02:14:06.602Z,95.90
2023-05-18T02:16:35.783Z,96.00
2023-05-18T02:19:03.627Z,95.80
2023-05-18T02:21:31.487Z,95.70
2023-05-18T02:23:59.253Z,95.60
2023-05-18T02:26:27.373Z,95.50
2023-05-18T02:28:55.197Z,95.40
2023-05-18T02:31:23.059Z,95.80
2023-05-18T02:33:52.208Z,96.10
2023-05-18T02:36:22.589Z,95.80
2023-05-18T02:38:50.567Z,96.00
2023-05-18T02:41:18.415Z,95.90
2023-05-18T02:43:46.161Z,96.20
2023-05-18T02:46:13.930Z,96.40
2023-05-18T02:48:45.529Z,96.40
2023-05-18T02:51:14.745Z,96.20
2023-05-18T02:53:43.994Z,96.40
2023-05-18T02:56:12.295Z,96.40
2023-05-18T02:58:40.097Z,96.50
2023-05-18T03:01:08.602Z,96.60
2023-05-18T03:03:36.744Z,97.10
2023-05-18T03:06:05.457Z,96.80
2023-05-18T03:08:34.742Z,96.20
2023-05-18T03:11:02.512Z,96.20
2023-05-18T03:13:30.335Z,96.10
2023-05-18T03:15:58.568Z,96.20
2023-05-18T03:18:26.417Z,96.00
2023-05-18T03:20:54.178Z,96.20
2023-05-18T03:23:21.942Z,96.30
2023-05-18T03:25:55.257Z,96.80
2023-05-18T03:28:23.070Z,97.40
2023-05-18T03:30:50.994Z,97.60
2023-05-18T03:33:18.900Z,98.00
2023-05-18T03:35:48.597Z,97.90
2023-05-18T03:38:16.620Z,98.20
2023-05-18T03:40:44.454Z,98.40
2023-05-18T03:43:13.554Z,98.40
2023-05-18T03:45:41.320Z,98.20
2023-05-18T03:48:09.080Z,98.00
2023-05-18T03:50:36.883Z,98.20
2023-05-18T03:53:04.635Z,97.50
2023-05-18T03:55:32.599Z,97.20
2023-05-18T03:58:00.725Z,97.50
2023-05-18T04:00:30.285Z,97.50
2023-05-18T04:02:58.136Z,97.50
2023-05-18T04:05:26.170Z,98.00
2023-05-18T04:07:53.928Z,98.30
2023-05-18T04:10:22.029Z,98.20
2023-05-18T04:12:50.105Z,98.20
2023-05-18T04:15:17.957Z,98.20
2023-05-18T04:17:47.049Z,98.10
2023-05-18T04:20:15.309Z,98.00
2023-05-18T04:22:46.163Z,98.20
2023-05-18T04:25:14.593Z,98.40
2023-05-18T04:27:43.706Z,98.10
2023-05-18T04:30:13.105Z,98.10
2023-05-18T04:32:42.891Z,98.20
2023-05-18T04:35:12.715Z,98.70
2023-05-18T04:37:41.202Z,98.60
2023-05-18T04:40:13.399Z,98.70
2023-05-18T04:42:45.251Z,99.00
2023-05-18T04:45:15.888Z,98.80
2023-05-18T04:47:46.644Z,99.00
2023-05-18T04:50:17.434Z,99.40
2023-05-18T04:52:48.567Z,99.20
2023-05-18T04:55:22.874Z,99.00
2023-05-18T04:57:51.049Z,99.30
2023-05-18T05:00:19.762Z,99.70
2023-05-18T05:02:47.747Z,99.90
2023-05-18T05:05:16.949Z,99.90
2023-05-18T05:07:44.793Z,99.90
2023-05-18T05:10:12.613Z,99.90
2023-05-18T05:12:40.508Z,99.90
2023-05-18T05:15:09.738Z,99.90
2023-05-18T05:17:37.897Z,99.90
2023-05-18T05:20:06.714Z,99.90
2023-05-18T05:22:36.007Z,99.90
2023-05-18T05:25:05.877Z,99.90
2023-05-18T05:27:34.064Z,99.90
2023-05-18T05:30:02.013Z,99.90
2023-05-18T05:32:29.983Z,99.90
2023-05-18T05:34:57.926Z,99.90
2023-05-18T05:37:25.700Z,99.90
2023-05-18T05:39:54.814Z,99.90
2023-05-18T05:42:22.708Z,99.90
2023-05-18T05:44:50.580Z,99.90
2023-05-18T05:47:18.355Z,99.90
2023-05-18T05:49:46.137Z,99.90
2023-05-18T05:52:13.902Z,99.90
2023-05-18T05:54:41.936Z,99.90
2023-05-18T05:57:11.025Z,99.90
2023-05-18T05:59:38.790Z,99.90
2023-05-18T06:02:06.855Z,99.90
2023-05-18T06:04:34.745Z,99.90
2023-05-18T06:07:02.677Z,99.90
2023-05-18T06:09:30.452Z,99.90
2023-05-18T06:11:58.208Z,99.90
2023-05-18T06:14:27.344Z,99.90
2023-05-18T06:16:55.121Z,99.90
2023-05-18T06:19:23.093Z,99.90
2023-05-18T06:21:50.985Z,99.90
2023-05-18T06:24:18.736Z,99.90
2023-05-18T06:26:46.470Z,99.90
2023-05-18T06:29:14.236Z,99.90
2023-05-18T06:31:43.819Z,99.90
2023-05-18T06:34:11.570Z,99.90
2023-05-18T06:36:39.368Z,99.90
2023-05-18T06:39:07.204Z,99.90
2023-05-18T06:41:35.177Z,99.90
2023-05-18T06:44:02.945Z,99.90
2023-05-18T06:46:30.820Z,98.20
2023-05-18T06:48:59.937Z,98.60
2023-05-18T06:51:27.804Z,98.00
2023-05-18T06:53:55.547Z,98.00
2023-05-18T06:56:23.364Z,98.60
2023-05-18T06:58:51.155Z,98.80
2023-05-18T07:01:19.349Z,98.00
2023-05-18T07:03:47.296Z,97.80
2023-05-18T07:06:16.470Z,97.60
2023-05-18T07:08:45.380Z,96.90
2023-05-18T07:11:13.146Z,96.20
2023-05-18T07:13:40.910Z,96.50
2023-05-18T07:16:08.736Z,97.40
2023-05-18T07:18:36.655Z,96.00
2023-05-18T07:21:04.766Z,97.10
2023-05-18T07:23:33.860Z,96.10
2023-05-18T07:26:01.784Z,94.60
2023-05-18T07:28:29.574Z,93.60
2023-05-18T07:30:57.428Z,94.40
2023-05-18T07:33:25.186Z,93.10
2023-05-18T07:35:53.203Z,93.20
2023-05-18T07:38:20.987Z,92.30
2023-05-18T07:40:50.039Z,93.00
2023-05-18T07:43:17.806Z,94.10
2023-05-18T07:45:45.578Z,95.00
2023-05-18T07:48:13.579Z,94.20
2023-05-18T07:50:41.439Z,94.10
2023-05-18T07:53:09.206Z,93.80
2023-05-18T07:55:37.017Z,92.60
2023-05-18T07:58:06.763Z,93.50
2023-05-18T08:00:35.078Z,93.70
2023-05-18T08:03:03.000Z,91.90
2023-05-18T08:05:31.193Z,92.00
2023-05-18T08:07:59.138Z,91.30
2023-05-18T08:10:27.136Z,90.70
2023-05-18T08:12:54.991Z,92.10
2023-05-18T08:15:24.389Z,92.30
2023-05-18T08:17:52.568Z,92.50
2023-05-18T08:20:20.450Z,92.50
2023-05-18T08:22:48.283Z,92.40
2023-05-18T08:25:16.067Z,92.10
2023-05-18T08:27:43.939Z,91.30
2023-05-18T08:30:12.903Z,91.40
2023-05-18T08:32:42.116Z,91.80
2023-05-18T08:35:11.004Z,91.10
2023-05-18T08:37:39.708Z,90.80
2023-05-18T08:40:11.270Z,90.80
2023-05-18T08:42:50.471Z,91.50
2023-05-18T08:45:24.363Z,91.40
2023-05-18T08:47:56.817Z,91.90
2023-05-18T08:50:26.984Z,90.60
2023-05-18T08:52:56.896Z,91.60
2023-05-18T08:55:25.700Z,90.80
2023-05-18T08:57:56.895Z,90.80
2023-05-18T09:00:25.160Z,90.40
2023-05-18T09:02:54.959Z,91.20
2023-05-18T09:05:24.713Z,90.90
2023-05-18T09:07:52.789Z,90.10
2023-05-18T09:10:20.703Z,86.40
2023-05-18T09:12:50.341Z,89.50
2023-05-18T09:15:18.947Z,91.10
2023-05-18T09:17:46.793Z,90.40
2023-05-18T09:20:17.494Z,88.40
2023-05-18T09:22:45.434Z,89.70
2023-05-18T09:25:13.370Z,90.60
2023-05-18T09:27:41.327Z,90.00
2023-05-18T09:30:12.433Z,89.30
2023-05-18T09:32:40.733Z,90.90
2023-05-18T09:35:10.146Z,88.70
2023-05-18T09:37:42.660Z,88.10
2023-05-18T09:40:10.971Z,85.50
2023-05-18T09:42:39.817Z,86.20
2023-05-18T09:45:17.750Z,85.10
2023-05-18T09:47:46.030Z,85.80
2023-05-18T09:50:14.205Z,83.80
2023-05-18T09:52:44.235Z,86.70
2023-05-18T09:55:12.614Z,85.80
2023-05-18T09:57:41.941Z,85.60
2023-05-18T10:00:11.973Z,88.40
2023-05-18T10:02:41.357Z,88.20
2023-05-18T10:05:20.379Z,90.00
2023-05-18T10:07:49.835Z,84.10
2023-05-18T10:10:20.611Z,81.80
2023-05-18T10:12:48.920Z,80.10
2023-05-18T10:15:19.578Z,80.90
2023-05-18T10:17:48.725Z,84.00
2023-05-18T10:20:19.582Z,85.20
2023-05-18T10:22:50.085Z,85.90
2023-05-18T10:25:20.530Z,85.70
2023-05-18T10:27:52.107Z,82.30
2023-05-18T10:30:22.848Z,83.50
2023-05-18T10:32:52.317Z,81.00
2023-05-18T10:35:21.743Z,79.50
2023-05-18T10:37:53.971Z,79.50
2023-05-18T10:40:23.743Z,80.50
2023-05-18T10:42:53.042Z,80.30
2023-05-18T10:45:21.228Z,80.90
2023-05-18T10:47:54.189Z,80.90
2023-05-18T10:50:24.204Z,81.80
2023-05-18T10:52:54.182Z,81.70
2023-05-18T10:55:22.258Z,81.80
2023-05-18T10:57:54.856Z,82.60
2023-05-18T11:00:22.840Z,81.30
2023-05-18T11:02:51.911Z,80.40
2023-05-18T11:05:25.719Z,80.00
2023-05-18T11:08:01.530Z,78.80
2023-05-18T11:10:36.031Z,77.60
2023-05-18T11:13:04.488Z,81.30
2023-05-18T11:16:05.090Z,80.00
2023-05-18T11:18:51.573Z,77.80
2023-05-18T11:21:21.371Z,75.90
2023-05-18T11:24:25.495Z,72.20
2023-05-18T11:26:54.655Z,78.10
2023-05-18T11:29:25.774Z,79.60
2023-05-18T11:31:55.270Z,75.70
2023-05-18T11:34:39.159Z,76.80
2023-05-18T11:37:10.024Z,77.80
2023-05-18T11:39:47.957Z,79.10
2023-05-18T11:42:24.235Z,76.50
2023-05-18T11:44:58.373Z,78.50
2023-05-18T11:47:32.036Z,77.20
2023-05-18T11:50:00.438Z,79.60
2023-05-18T11:52:28.364Z,77.70
2023-05-18T11:55:00.797Z,77.40
2023-05-18T11:57:40.372Z,78.70
2023-05-18T12:00:10.462Z,78.90
2023-05-18T12:02:39.108Z,79.60
2023-05-18T12:05:09.514Z,78.90
2023-05-18T12:07:38.743Z,78.60
2023-05-18T12:10:12.627Z,78.50
2023-05-18T12:12:40.736Z,80.70
2023-05-18T12:15:10.605Z,80.70
2023-05-18T12:17:42.807Z,80.20
2023-05-18T12:20:12.433Z,78.30
2023-05-18T12:22:40.943Z,77.50
2023-05-18T12:25:11.453Z,80.00
2023-05-18T12:27:40.570Z,74.60
2023-05-18T12:30:11.889Z,77.10
2023-05-18T12:32:39.811Z,74.60
2023-05-18T12:35:09.095Z,74.10
2023-05-18T12:37:45.278Z,75.80
2023-05-18T12:40:16.807Z,75.90
2023-05-18T12:42:53.590Z,73.10
2023-05-18T12:45:23.635Z,75.00
2023-05-18T12:47:54.512Z,75.30
2023-05-18T12:50:23.616Z,75.30
2023-05-18T12:52:52.001Z,76.30
2023-05-18T12:55:22.629Z,77.70
2023-05-18T12:58:02.163Z,77.90
2023-05-18T13:00:33.605Z,75.50
2023-05-18T13:03:07.208Z,77.70
2023-05-18T13:05:35.155Z,78.60
2023-05-18T13:08:03.013Z,75.90
2023-05-18T13:10:32.995Z,75.80
2023-05-18T13:13:03.730Z,77.50
2023-05-18T13:15:35.719Z,74.90
2023-05-18T13:18:09.933Z,75.20
2023-05-18T13:20:41.421Z,76.60
2023-05-18T13:23:11.304Z,72.80
2023-05-18T13:25:40.477Z,72.50
2023-05-18T13:28:10.413Z,72.40
2023-05-18T13:30:39.064Z,71.40
2023-05-18T13:33:08.333Z,73.30
2023-05-18T13:35:36.345Z,72.40
2023-05-18T13:38:04.610Z,77.00
2023-05-18T13:40:32.376Z,73.00
2023-05-18T13:43:01.470Z,72.20
2023-05-18T13:45:30.792Z,74.00
2023-05-18T13:47:58.747Z,72.90
2023-05-18T13:50:26.981Z,71.40
2023-05-18T13:52:55.163Z,72.40
2023-05-18T13:55:23.183Z,74.20
2023-05-18T13:57:50.931Z,73.40
2023-05-18T14:00:22.805Z,77.00
2023-05-18T14:02:51.180Z,73.60
2023-05-18T14:05:19.096Z,72.80
2023-05-18T14:07:46.971Z,72.90
2023-05-18T14:10:14.964Z,67.70
2023-05-18T14:12:43.293Z,69.00
2023-05-18T14:15:13.634Z,69.60
2023-05-18T14:17:43.425Z,71.40
2023-05-18T14:20:12.651Z,68.90
2023-05-18T14:22:40.934Z,68.20
2023-05-18T14:25:09.374Z,71.70
2023-05-18T14:27:37.144Z,71.20
2023-05-18T14:30:06.384Z,70.30
2023-05-18T14:32:34.391Z,67.80
2023-05-18T14:35:03.648Z,67.30
2023-05-18T14:37:32.798Z,70.10
2023-05-18T14:40:00.708Z,67.90
2023-05-18T14:42:28.444Z,70.00
2023-05-18T14:44:56.211Z,68.40
2023-05-18T14:47:24.028Z,68.30
2023-05-18T14:49:51.851Z,71.00
2023-05-18T14:52:21.071Z,68.10
2023-05-18T14:54:48.851Z,67.80
2023-05-18T14:57:16.917Z,70.10
2023-05-18T14:59:44.681Z,71.90
2023-05-18T15:02:12.452Z,68.90
2023-05-18T15:04:40.232Z,68.00
2023-05-18T15:07:08.506Z,65.90
2023-05-18T15:09:37.612Z,66.60
2023-05-18T15:12:06.207Z,67.90
2023-05-18T15:14:33.931Z,69.40
2023-05-18T15:17:01.672Z,68.30
2023-05-18T15:19:30.185Z,72.00
2023-05-18T15:21:58.015Z,71.00
2023-05-18T15:24:26.205Z,73.90
2023-05-18T15:26:55.620Z,71.60
2023-05-18T15:29:23.506Z,71.30
2023-05-18T15:31:54.098Z,70.40
2023-05-18T15:34:22.049Z,68.60
2023-05-18T15:36:50.040Z,67.60
2023-05-18T15:39:17.797Z,70.00
2023-05-18T15:41:45.558Z,70.20
2023-05-18T15:44:14.626Z,71.90
2023-05-18T15:46:42.428Z,71.90
2023-05-18T15:49:10.960Z,71.20
2023-05-18T15:51:38.972Z,71.30
2023-05-18T15:54:06.782Z,72.60
2023-05-18T15:56:34.531Z,70.90
2023-05-18T15:59:02.285Z,71.10
2023-05-18T16:01:31.394Z,71.90
2023-05-18T16:03:59.174Z,70.10
2023-05-18T16:06:27.032Z,69.60
2023-05-18T16:08:55.930Z,68.70
2023-05-18T16:11:23.801Z,70.70
2023-05-18T16:13:56.673Z,71.20
2023-05-18T16:16:25.379Z,71.30
2023-05-18T16:18:54.960Z,70.00
2023-05-18T16:21:22.889Z,70.40
2023-05-18T16:23:50.635Z,70.30
2023-05-18T16:26:18.541Z,71.00
2023-05-18T16:28:46.390Z,73.20
2023-05-18T16:31:14.322Z,74.50
2023-05-18T16:33:42.058Z,72.80
2023-05-18T16:36:11.434Z,73.40
2023-05-18T16:38:39.287Z,73.10
2023-05-18T16:41:07.489Z,72.80
2023-05-18T16:43:35.771Z,73.20
2023-05-18T16:46:03.597Z,73.30
2023-05-18T16:48:31.326Z,74.90
2023-05-18T16:50:59.138Z,75.50
2023-05-18T16:53:28.221Z,73.40
2023-05-18T16:55:57.314Z,72.60
2023-05-18T16:58:25.049Z,73.90
2023-05-18T17:00:53.286Z,74.60
2023-05-18T17:03:21.616Z,74.60
2023-05-18T17:05:50.048Z,73.60
2023-05-18T17:08:17.813Z,74.40
2023-05-18T17:10:46.966Z,75.00
2023-05-18T17:13:14.703Z,74.30
2023-05-18T17:15:42.599Z,73.90
2023-05-18T17:18:10.431Z,72.50
2023-05-18T17:20:38.224Z,73.70
2023-05-18T17:23:06.085Z,74.50
2023-05-18T17:25:33.804Z,73.40
2023-05-18T17:28:02.889Z,74.80
2023-05-18T17:30:30.798Z,75.10
2023-05-18T17:32:58.842Z,75.40
2023-05-18T17:35:26.646Z,75.10
2023-05-18T17:37:54.915Z,74.50
2023-05-18T17:40:23.021Z,75.30
2023-05-18T17:42:50.860Z,74.30
2023-05-18T17:45:20.014Z,76.30
2023-05-18T17:47:47.792Z,74.50
2023-05-18T17:50:15.677Z,74.30
2023-05-18T17:52:43.448Z,75.50
2023-05-18T17:55:11.327Z,75.30
2023-05-18T17:57:44.872Z,74.60
2023-05-18T18:00:13.920Z,75.70
2023-05-18T18:02:43.072Z,76.00
2023-05-18T18:05:11.280Z,76.30
2023-05-18T18:07:39.169Z,77.70
2023-05-18T18:10:08.671Z,78.10
2023-05-18T18:12:36.456Z,77.50
2023-05-18T18:15:04.416Z,77.30
2023-05-18T18:17:32.182Z,77.80
2023-05-18T18:20:01.325Z,77.60
2023-05-18T18:22:29.115Z,78.10
2023-05-18T18:24:56.887Z,77.50
2023-05-18T18:27:24.679Z,78.70
2023-05-18T18:29:52.438Z,78.80
2023-05-18T18:32:20.217Z,79.40
2023-05-18T18:34:47.978Z,80.00
2023-05-18T18:37:17.093Z,80.20
2023-05-18T18:39:44.827Z,80.50
2023-05-18T18:42:12.638Z,80.80
2023-05-18T18:44:40.453Z,81.80
2023-05-18T18:47:08.219Z,82.50
2023-05-18T18:49:36.004Z,83.00
2023-05-18T18:52:03.810Z,83.50
2023-05-18T18:54:32.955Z,84.40
2023-05-18T18:57:01.755Z,85.00
2023-05-18T18:59:29.480Z,85.60
2023-05-18T19:01:57.307Z,86.80
2023-05-18T19:04:25.199Z,87.00
2023-05-18T19:06:53.952Z,87.40
2023-05-18T19:09:21.895Z,88.20
2023-05-18T19:11:51.022Z,89.30
2023-05-18T19:14:18.804Z,89.60
2023-05-18T19:16:46.564Z,89.90
2023-05-18T19:19:14.466Z,90.00
2023-05-18T19:21:42.369Z,90.10
2023-05-18T19:24:10.651Z,90.30
2023-05-18T19:26:38.731Z,90.40
2023-05-18T19:29:07.817Z,90.70
2023-05-18T19:31:37.004Z,90.90
2023-05-18T19:34:04.882Z,90.80
2023-05-18T19:36:33.774Z,91.00
2023-05-18T19:39:01.533Z,90.60
2023-05-18T19:41:29.304Z,90.50
2023-05-18T19:43:57.124Z,90.80
2023-05-18T19:46:26.411Z,91.20
2023-05-18T19:48:56.291Z,91.60
2023-05-18T19:51:24.261Z,92.00
2023-05-18T19:53:52.001Z,92.10
2023-05-18T19:56:19.813Z,92.40
2023-05-18T19:58:47.567Z,92.80
2023-05-18T20:01:17.996Z,93.00
2023-05-18T20:03:47.895Z,93.30
2023-05-18T20:06:15.796Z,93.50
2023-05-18T20:08:43.655Z,93.60
2023-05-18T20:11:12.174Z,93.90
2023-05-18T20:13:39.908Z,94.30
2023-05-18T20:16:07.994Z,94.50
2023-05-18T20:18:35.848Z,94.80
2023-05-18T20:21:07.134Z,95.10
2023-05-18T20:23:34.992Z,95.30
2023-05-18T20:26:02.886Z,95.40
2023-05-18T20:28:31.498Z,95.30
2023-05-18T20:30:59.353Z,95.50
2023-05-18T20:33:27.162Z,95.70
2023-05-18T20:35:54.964Z,95.90
2023-05-18T20:38:25.737Z,96.00
2023-05-18T20:40:53.823Z,96.00
2023-05-18T20:43:22.936Z,96.20
2023-05-18T20:45:51.340Z,96.60
2023-05-18T20:48:24.903Z,96.70
2023-05-18T20:50:53.047Z,96.90
2023-05-18T20:53:21.551Z,97.00
2023-05-18T20:55:50.849Z,96.90
2023-05-18T20:58:19.336Z,97.10
2023-05-18T21:00:47.946Z,97.20
2023-05-18T21:03:18.347Z,96.90
2023-05-18T21:05:49.468Z,96.90
2023-05-18T21:08:17.350Z,97.00
2023-05-18T21:10:45.147Z,96.80
2023-05-18T21:13:15.003Z,97.10
2023-05-18T21:15:42.838Z,96.90
2023-05-18T21:18:10.691Z,97.10
2023-05-18T21:20:38.792Z,97.30
2023-05-18T21:23:06.635Z,97.20
2023-05-18T21:25:34.561Z,97.40
2023-05-18T21:28:02.415Z,97.40
2023-05-18T21:30:32.389Z,97.50
2023-05-18T21:33:00.898Z,97.40
2023-05-18T21:35:29.015Z,97.50
2023-05-18T21:37:56.812Z,97.60
2023-05-18T21:40:24.567Z,97.50
2023-05-18T21:42:52.351Z,97.70
2023-05-18T21:45:22.477Z,97.90
2023-05-18T21:47:51.812Z,98.20
2023-05-18T21:50:19.663Z,98.10
2023-05-18T21:52:47.423Z,98.20
2023-05-18T21:55:15.334Z,97.90
2023-05-18T21:57:43.172Z,97.80
2023-05-18T22:00:13.731Z,98.00
2023-05-18T22:02:41.610Z,98.20
2023-05-18T22:05:11.202Z,98.00
2023-05-18T22:07:38.965Z,98.10
2023-05-18T22:10:07.557Z,98.30
2023-05-18T22:12:37.442Z,98.10
2023-05-18T22:15:05.885Z,98.00
2023-05-18T22:17:34.314Z,97.90
2023-05-18T22:20:02.194Z,97.80
2023-05-18T22:22:31.351Z,97.90
2023-05-18T22:24:59.179Z,98.00
2023-05-18T22:27:27.060Z,98.20
2023-05-18T22:29:54.871Z,98.30
2023-05-18T22:32:22.815Z,98.60
2023-05-18T22:34:50.810Z,98.40
2023-05-18T22:37:18.595Z,98.30
2023-05-18T22:39:47.674Z,98.50
2023-05-18T22:42:15.426Z,98.60
2023-05-18T22:44:43.193Z,98.60
2023-05-18T22:47:11.293Z,98.70
2023-05-18T22:49:41.121Z,98.70
2023-05-18T22:52:10.290Z,98.60
2023-05-18T22:54:38.108Z,98.50
2023-05-18T22:57:07.383Z,98.60
2023-05-18T22:59:36.093Z,98.70
2023-05-18T23:02:04.766Z,98.50
2023-05-18T23:04:34.169Z,98.50
2023-05-18T23:07:04.022Z,98.50
2023-05-18T23:09:31.913Z,98.70
2023-05-18T23:12:01.077Z,99.00
2023-05-18T23:14:31.138Z,99.00
2023-05-18T23:16:59.357Z,98.90
2023-05-18T23:19:27.568Z,99.00
2023-05-18T23:21:55.903Z,99.00
2023-05-18T23:24:23.699Z,99.10
2023-05-18T23:26:51.444Z,98.80
2023-05-18T23:29:19.230Z,98.90
2023-05-18T23:31:48.330Z,99.00
2023-05-18T23:34:16.394Z,98.70
2023-05-18T23:36:45.750Z,99.00
2023-05-18T23:39:14.060Z,98.50
2023-05-18T23:41:42.967Z,98.40
2023-05-18T23:44:11.364Z,98.70
2023-05-18T23:46:39.761Z,98.90
2023-05-18T23:49:09.604Z,98.90
2023-05-18T23:51:38.534Z,98.70
2023-05-18T23:54:07.249Z,98.70
2023-05-18T23:56:35.610Z,98.30
2023-05-18T23:59:03.726Z,98.50
